If you wish to contribute or participate in the discussions about articles you are invited to join SKYbrary as a registered user

 Actions

Cape Town International Airport

From SKYbrary Wiki

FACT
Airport
ICAO: FACT – IATA: CPT
Summary
Name Cape Town International Airport
Region Africa
Territory South Africa ZA.gif
Location , Western Cape
Serving Cape Town
Elevation 46.025 m <br />151 ft <br />151 ft46.025 m <br />
Coordinates 33° 57' 53.30" S, 18° 36' 6.00" E
Runways
Designator Length Width Surface ROPS
1/19 3201 m10,501.969 ft <br /> 61 m200.131 ft <br /> ASP yes/yes
16/34 1701 m5,580.709 ft <br /> 46 m150.919 ft <br /> ASP yes/yes


METAR
Observation FACT 220627Z VRB01KT CAVOK 14/09 Q1019 NOSIG
Station Cape Town, Cape Town International Airport
Date/Time 22 September 2021 06:27:00
Wind direction °
Wind speed 01 kts
Lowest cloud amount clouds and visibility OK
Temperature 14°C
Dew point 9°C
Humidity 71%
QNH 1019 hPa
Weather condition n/a